Time;durP1;ratioP1;P1;durP2;ratioP2;P2;SDS_P1;SDS_P2;PMS_P1;PMS_P2;Temp;Humidity;BMP_temperature;BMP_pressure;BME280_temperature;BME280_humidity;BME280_pressure;Samples;Min_cycle;Max_cycle;Signal;HPM_P1;HPM_P2
2022/09/24 00:01:14;;;;;;;3.75;2.75;;;13.90;91.10;;;;;;4952125;28;20050;-72
2022/09/24 00:03:40;;;;;;;3.45;2.22;;;13.90;90.90;;;;;;4963953;28;20380;-72
2022/09/24 00:06:06;;;;;;;5.70;2.90;;;13.90;90.70;;;;;;4962296;28;20047;-72
2022/09/24 00:08:32;;;;;;;3.72;2.70;;;13.90;90.70;;;;;;4960651;28;20396;-72
2022/09/24 00:11:01;;;;;;;3.38;2.25;;;13.90;90.60;;;;;;4951222;29;20457;-73
2022/09/24 00:13:28;;;;;;;4.82;2.65;;;13.90;90.70;;;;;;4951510;29;20358;-72
2022/09/24 00:15:54;;;;;;;6.03;2.95;;;13.90;91.30;;;;;;4935295;29;20352;-72
2022/09/24 00:18:21;;;;;;;4.72;2.80;;;13.90;91.30;;;;;;4934573;29;20054;-72
2022/09/24 00:20:47;;;;;;;4.53;2.58;;;13.90;91.20;;;;;;4946558;28;20047;-72
2022/09/24 00:23:13;;;;;;;4.32;2.60;;;13.90;91.30;;;;;;4951259;28;20081;-72
2022/09/24 00:28:29;;;;;;;3.92;2.67;;;13.80;91.50;;;;;;4946029;28;20057;-72
2022/09/24 00:30:57;;;;;;;3.97;2.55;;;13.80;91.50;;;;;;4949548;29;20047;-72
2022/09/24 00:33:27;;;;;;;4.03;2.80;;;13.80;91.40;;;;;;4900431;29;20074;-72
2022/09/24 00:36:03;;;;;;;6.60;2.90;;;13.80;91.60;;;;;;4949810;28;20045;-72
2022/09/24 00:38:33;;;;;;;5.85;2.75;;;13.80;91.60;;;;;;4930996;29;20047;-72
2022/09/24 00:41:00;;;;;;;5.93;2.75;;;13.80;92.00;;;;;;4950894;29;20051;-72
2022/09/24 00:43:27;;;;;;;5.43;2.67;;;13.80;92.10;;;;;;4948419;28;20544;-72
2022/09/24 00:45:56;;;;;;;5.00;2.97;;;13.70;91.70;;;;;;4950738;28;20121;-72
2022/09/24 00:48:22;;;;;;;6.13;2.38;;;13.70;91.70;;;;;;4953886;29;20121;-73
2022/09/24 00:50:47;;;;;;;5.63;2.70;;;13.70;91.60;;;;;;4936981;29;20047;-73
2022/09/24 00:53:18;;;;;;;4.72;2.78;;;13.70;91.80;;;;;;4949783;29;20051;-72
2022/09/24 00:55:46;;;;;;;3.88;2.75;;;13.80;91.70;;;;;;4934988;29;20035;-73
2022/09/24 00:58:13;;;;;;;;;;;13.80;91.60;;;;;;4949945;28;20055;-72
2022/09/24 01:00:43;;;;;;;6.68;3.00;;;13.70;91.80;;;;;;4950210;29;20217;-72
2022/09/24 01:03:22;;;;;;;5.55;3.10;;;13.70;91.70;;;;;;4933391;29;20043;-72
2022/09/24 01:05:48;;;;;;;5.03;2.70;;;13.80;91.80;;;;;;4931136;29;20043;-72
2022/09/24 01:08:15;;;;;;;7.32;3.10;;;13.70;92.40;;;;;;4948628;29;20047;-73
2022/09/24 01:11:09;;;;;;;4.53;2.90;;;13.70;92.40;;;;;;4918162;29;20047;-72
2022/09/24 01:14:02;;;;;;;11.00;2.85;;;13.70;92.60;;;;;;4933591;29;20523;-72
2022/09/24 01:16:38;;;;;;;5.28;2.83;;;13.70;92.70;;;;;;4932743;29;20050;-72
2022/09/24 01:19:28;;;;;;;3.50;2.72;;;13.70;92.60;;;;;;4931624;29;20047;-72
2022/09/24 01:22:24;;;;;;;4.45;2.30;;;13.60;92.80;;;;;;4947974;29;20047;-72
2022/09/24 01:25:05;;;;;;;4.20;2.50;;;13.60;93.00;;;;;;4933910;29;20055;-73
2022/09/24 01:27:59;;;;;;;4.07;2.70;;;13.60;92.70;;;;;;4949175;28;20481;-73
2022/09/24 01:30:25;;;;;;;6.28;3.40;;;13.60;92.80;;;;;;4932570;29;20051;-72
2022/09/24 01:32:53;;;;;;;5.20;3.20;;;13.60;92.80;;;;;;4950216;29;20047;-72
2022/09/24 01:35:39;;;;;;;5.15;2.88;;;13.40;92.80;;;;;;4930197;29;20047;-72
2022/09/24 01:38:15;;;;;;;5.47;3.25;;;13.40;92.80;;;;;;4935067;29;20051;-72
2022/09/24 01:40:41;;;;;;;4.20;3.10;;;13.40;92.90;;;;;;4965820;28;20082;-72
2022/09/24 01:43:07;;;;;;;6.03;2.95;;;13.40;93.00;;;;;;4948081;29;20477;-72
2022/09/24 01:45:33;;;;;;;5.60;3.20;;;13.30;93.10;;;;;;4952886;29;20055;-72
2022/09/24 01:48:00;;;;;;;5.82;3.47;;;13.30;92.70;;;;;;4937429;29;20055;-72
2022/09/24 01:50:27;;;;;;;4.40;3.08;;;13.20;92.60;;;;;;4951912;29;20061;-73
2022/09/24 01:53:09;;;;;;;5.63;3.55;;;13.20;92.40;;;;;;4937441;29;20051;-72
2022/09/24 01:55:38;;;;;;;6.68;3.33;;;13.20;92.40;;;;;;4918514;29;20126;-73
2022/09/24 01:58:09;;;;;;;5.43;3.47;;;13.10;92.20;;;;;;4936475;29;20142;-72
2022/09/24 02:00:37;;;;;;;4.20;3.08;;;13.10;92.30;;;;;;4921988;29;20043;-72
2022/09/24 02:03:22;;;;;;;4.93;3.50;;;13.20;92.30;;;;;;4919264;29;20060;-72
2022/09/24 02:06:02;;;;;;;5.55;3.10;;;13.20;92.40;;;;;;4955515;28;20051;-73
2022/09/24 02:08:33;;;;;;;6.28;3.10;;;13.20;92.30;;;;;;4938809;29;20051;-73
2022/09/24 02:11:05;;;;;;;8.60;3.42;;;13.30;92.30;;;;;;4937810;29;20074;-72
2022/09/24 02:13:37;;;;;;;5.80;3.10;;;13.20;92.20;;;;;;4918312;29;20048;-71
2022/09/24 02:16:04;;;;;;;4.90;3.20;;;13.20;92.20;;;;;;4937587;29;20043;-72
2022/09/24 02:18:33;;;;;;;8.25;3.00;;;13.20;92.30;;;;;;4968177;28;20054;-72
2022/09/24 02:21:00;;;;;;;5.40;3.30;;;13.20;92.30;;;;;;4951928;28;20047;-72
2022/09/24 02:23:25;;;;;;;6.72;3.42;;;13.20;92.40;;;;;;4952296;29;20047;-67
2022/09/24 02:25:58;;;;;;;7.05;3.35;;;13.20;92.30;;;;;;4945618;29;20047;-67
2022/09/24 02:28:25;;;;;;;5.35;3.10;;;13.20;92.40;;;;;;4985222;28;20809;-68
2022/09/24 02:30:55;;;;;;;4.68;3.08;;;13.20;92.50;;;;;;4959830;28;20444;-68
2022/09/24 02:36:06;;;;;;;5.25;3.13;;;13.30;92.50;;;;;;4944986;29;20078;-67
2022/09/24 02:38:32;;;;;;;5.10;3.25;;;13.20;92.50;;;;;;4979344;28;20079;-68
2022/09/24 02:40:59;;;;;;;7.43;3.00;;;13.20;92.60;;;;;;4951200;28;20127;-67
2022/09/24 02:43:25;;;;;;;12.10;3.30;;;13.10;92.60;;;;;;4951323;29;20137;-68
2022/09/24 02:45:52;;;;;;;4.40;3.00;;;13.20;92.60;;;;;;4950932;28;20416;-67
2022/09/24 02:48:18;;;;;;;4.20;3.10;;;13.20;92.60;;;;;;4948514;28;20070;-67
2022/09/24 02:50:44;;;;;;;3.33;2.67;;;13.20;92.60;;;;;;4951388;28;20213;-67
2022/09/24 02:53:10;;;;;;;6.53;3.00;;;13.20;92.60;;;;;;4936293;29;20058;-67
2022/09/24 02:55:36;;;;;;;5.07;3.20;;;13.20;92.70;;;;;;4936484;29;20043;-68
2022/09/24 02:58:03;;;;;;;4.45;2.85;;;13.20;92.70;;;;;;4951329;29;20205;-68
2022/09/24 03:00:29;;;;;;;6.22;3.20;;;13.20;92.60;;;;;;4935878;29;20050;-67
2022/09/24 03:02:55;;;;;;;5.78;3.33;;;13.30;92.60;;;;;;4936831;28;20062;-71
2022/09/24 03:05:21;;;;;;;6.13;3.22;;;13.20;92.70;;;;;;4947011;29;20156;-67
2022/09/24 03:07:47;;;;;;;4.93;3.40;;;13.30;92.70;;;;;;4936199;29;20059;-68
2022/09/24 03:10:13;;;;;;;6.03;3.40;;;13.30;92.90;;;;;;4951456;29;20560;-67
2022/09/24 03:12:41;;;;;;;4.28;2.97;;;13.20;92.70;;;;;;4950775;29;20054;-67
2022/09/24 03:15:06;;;;;;;5.93;3.07;;;13.20;92.90;;;;;;4951893;29;20066;-67
2022/09/24 03:17:32;;;;;;;4.35;3.28;;;13.20;92.90;;;;;;4950963;29;20330;-68
2022/09/24 03:19:59;;;;;;;5.28;3.25;;;13.20;92.90;;;;;;4952803;28;20082;-68
2022/09/24 03:22:25;;;;;;;5.40;2.80;;;13.10;92.70;;;;;;4951493;28;20405;-67
2022/09/24 03:24:51;;;;;;;5.75;3.00;;;13.10;92.60;;;;;;4944977;28;20150;-68
2022/09/24 03:27:16;;;;;;;4.32;2.50;;;13.10;92.60;;;;;;4903934;29;20047;-67
2022/09/24 03:32:28;;;;;;;4.97;3.10;;;13.10;92.70;;;;;;4951372;29;20388;-67
2022/09/24 03:34:55;;;;;;;4.72;2.85;;;13.10;93.00;;;;;;4931415;29;20047;-68
2022/09/24 03:37:21;;;;;;;4.32;3.08;;;13.10;93.10;;;;;;4949468;29;20047;-68
2022/09/24 03:39:47;;;;;;;7.28;3.30;;;13.10;93.40;;;;;;4949790;29;20038;-68
2022/09/24 03:42:12;;;;;;;6.28;3.10;;;13.20;93.20;;;;;;4967358;28;20474;-67
2022/09/24 03:44:39;;;;;;;5.57;3.10;;;13.20;93.40;;;;;;4949774;29;20061;-67
2022/09/24 03:47:05;;;;;;;6.15;2.97;;;13.20;93.60;;;;;;4960687;28;20091;-68
2022/09/24 03:49:31;;;;;;;5.20;3.05;;;13.20;93.30;;;;;;4948890;29;20078;-68
2022/09/24 03:51:56;;;;;;;5.07;3.33;;;13.20;93.60;;;;;;4950646;29;21027;-68
2022/09/24 03:54:22;;;;;;;3.92;2.92;;;13.10;93.50;;;;;;4949278;28;20059;-68
2022/09/24 03:56:48;;;;;;;4.45;3.30;;;13.10;93.70;;;;;;4947610;29;20498;-68
2022/09/24 03:59:13;;;;;;;6.13;3.60;;;13.10;93.90;;;;;;4976450;28;20059;-67
2022/09/24 04:01:39;;;;;;;5.75;3.40;;;13.10;93.90;;;;;;4935084;29;20450;-67
2022/09/24 04:04:05;;;;;;;6.47;3.88;;;13.20;94.00;;;;;;4899660;29;20082;-67
2022/09/24 04:06:31;;;;;;;6.10;3.22;;;13.10;94.30;;;;;;4950378;29;20054;-67
2022/09/24 04:08:59;;;;;;;4.38;3.15;;;13.10;94.30;;;;;;4932303;29;20434;-68
2022/09/24 04:11:25;;;;;;;5.72;3.40;;;13.10;94.40;;;;;;4950861;29;20058;-68
2022/09/24 04:13:50;;;;;;;4.88;3.42;;;13.10;94.50;;;;;;4930258;29;20047;-67
2022/09/24 04:16:17;;;;;;;7.53;4.03;;;13.10;94.80;;;;;;4928522;29;20039;-68
2022/09/24 04:18:46;;;;;;;6.25;4.20;;;13.10;94.50;;;;;;4934422;29;20053;-67
2022/09/24 04:21:13;;;;;;;4.95;3.17;;;13.10;94.80;;;;;;4952928;28;20058;-67
2022/09/24 04:23:41;;;;;;;5.45;3.40;;;13.00;94.60;;;;;;4951162;29;20818;-67
2022/09/24 04:26:07;;;;;;;4.82;3.50;;;13.00;94.80;;;;;;4918699;29;20117;-68
2022/09/24 04:28:33;;;;;;;7.30;3.28;;;13.10;94.70;;;;;;4950844;29;20051;-67
2022/09/24 04:31:00;;;;;;;6.43;3.72;;;13.10;94.60;;;;;;4933963;29;20092;-67
2022/09/24 04:33:26;;;;;;;7.63;3.80;;;13.10;94.70;;;;;;4934715;29;20047;-67
2022/09/24 04:35:51;;;;;;;4.22;3.50;;;13.10;95.10;;;;;;4949802;29;20051;-67
2022/09/24 04:38:20;;;;;;;6.18;3.42;;;13.10;94.80;;;;;;4949509;28;20061;-68
2022/09/24 04:40:46;;;;;;;5.45;3.72;;;13.00;94.90;;;;;;4950538;28;20054;-68
2022/09/24 04:43:12;;;;;;;5.72;3.58;;;13.00;94.90;;;;;;4959300;28;20207;-67
2022/09/24 04:45:37;;;;;;;5.50;3.10;;;13.10;94.90;;;;;;4936681;28;20075;-67
2022/09/24 04:48:04;;;;;;;6.63;3.38;;;13.00;95.00;;;;;;4966036;28;20113;-67
2022/09/24 04:50:33;;;;;;;8.23;3.65;;;13.00;95.50;;;;;;4949320;29;20054;-68
2022/09/24 04:52:59;;;;;;;5.38;3.65;;;12.90;95.40;;;;;;4933643;29;20085;-68
2022/09/24 04:55:26;;;;;;;5.40;3.53;;;12.90;95.80;;;;;;4933005;29;20472;-69
2022/09/24 04:57:57;;;;;;;5.35;3.28;;;12.90;95.70;;;;;;4914326;29;20459;-69
2022/09/24 05:00:25;;;;;;;5.75;3.30;;;12.80;96.10;;;;;;4948099;29;20051;-69
2022/09/24 05:02:58;;;;;;;6.00;3.30;;;12.80;96.00;;;;;;4934088;29;20046;-68
2022/09/24 05:05:23;;;;;;;9.27;3.53;;;12.80;96.20;;;;;;4943704;29;20057;-69
2022/09/24 05:07:50;;;;;;;4.75;3.03;;;12.90;96.00;;;;;;4933603;29;20047;-69
2022/09/24 05:10:15;;;;;;;6.82;3.35;;;12.90;96.00;;;;;;4948000;29;20050;-69
2022/09/24 05:12:42;;;;;;;9.75;3.72;;;12.90;96.10;;;;;;4949617;28;20051;-69
2022/09/24 05:15:11;;;;;;;6.07;3.20;;;12.90;96.00;;;;;;4928021;29;20050;-69
2022/09/24 05:17:38;;;;;;;5.88;2.97;;;12.90;96.20;;;;;;4950777;28;20047;-69
2022/09/24 05:20:05;;;;;;;6.22;3.42;;;13.00;96.00;;;;;;4933773;29;20043;-68
2022/09/24 05:22:31;;;;;;;8.63;4.28;;;13.00;95.90;;;;;;4917173;29;20081;-69
2022/09/24 05:24:57;;;;;;;7.35;3.20;;;12.90;96.00;;;;;;4947089;29;20457;-69
2022/09/24 05:27:24;;;;;;;7.88;3.35;;;12.90;95.90;;;;;;4949041;29;20069;-69
2022/09/24 05:29:50;;;;;;;6.18;3.28;;;12.90;96.10;;;;;;4948935;28;20059;-68
2022/09/24 05:32:17;;;;;;;5.03;3.50;;;12.80;96.00;;;;;;4974292;28;20440;-69
2022/09/24 05:34:46;;;;;;;5.88;3.33;;;12.80;96.00;;;;;;4914588;29;20048;-70
2022/09/24 05:37:12;;;;;;;7.50;3.58;;;12.80;95.90;;;;;;4914044;29;20705;-70
2022/09/24 05:39:38;;;;;;;6.57;4.00;;;12.80;95.90;;;;;;4899892;29;20303;-70
2022/09/24 05:42:04;;;;;;;6.07;4.03;;;12.80;96.00;;;;;;4928295;29;20048;-69
2022/09/24 05:44:30;;;;;;;6.55;3.58;;;12.80;96.10;;;;;;4931015;29;20075;-68
2022/09/24 05:46:56;;;;;;;10.57;3.90;;;12.70;96.10;;;;;;4930600;29;20059;-70
2022/09/24 05:49:22;;;;;;;5.57;3.80;;;12.70;96.10;;;;;;4914321;29;20107;-68
2022/09/24 05:51:49;;;;;;;5.70;3.80;;;12.80;96.20;;;;;;4916504;29;20141;-69
2022/09/24 05:54:18;;;;;;;6.43;3.63;;;12.70;96.10;;;;;;4949065;29;20063;-68
2022/09/24 05:56:44;;;;;;;8.85;4.10;;;12.70;96.30;;;;;;4930511;29;20043;-68
2022/09/24 05:59:10;;;;;;;4.55;3.22;;;12.70;96.30;;;;;;4898399;29;20067;-68
2022/09/24 06:01:36;;;;;;;6.53;4.03;;;12.70;96.30;;;;;;4917299;29;20051;-67
2022/09/24 06:04:02;;;;;;;8.98;4.10;;;12.80;96.30;;;;;;4932620;29;20089;-68
2022/09/24 06:06:27;;;;;;;8.20;4.00;;;12.80;95.80;;;;;;4914366;29;20082;-68
2022/09/24 06:08:53;;;;;;;8.00;3.67;;;12.80;95.80;;;;;;4900105;29;20195;-68
2022/09/24 06:11:21;;;;;;;4.50;3.63;;;12.80;95.70;;;;;;4932575;29;20174;-68
2022/09/24 06:13:48;;;;;;;6.50;3.20;;;12.80;95.80;;;;;;4913845;29;20485;-68
2022/09/24 06:16:14;;;;;;;10.18;5.43;;;12.90;95.90;;;;;;4927305;29;20055;-71
2022/09/24 06:18:41;;;;;;;6.82;4.75;;;12.90;96.00;;;;;;4928426;29;20055;-71
2022/09/24 06:21:09;;;;;;;6.55;4.10;;;12.80;95.80;;;;;;4931330;29;20079;-71
2022/09/24 06:23:35;;;;;;;7.95;3.95;;;12.70;95.90;;;;;;4914405;29;20047;-73
2022/09/24 06:26:01;;;;;;;7.15;4.05;;;12.70;96.10;;;;;;4946775;28;20058;-68
2022/09/24 06:28:26;;;;;;;6.35;4.05;;;12.60;96.30;;;;;;4937148;29;20055;-67
2022/09/24 06:30:52;;;;;;;9.07;3.83;;;12.70;96.30;;;;;;4921109;29;20113;-69
2022/09/24 06:33:19;;;;;;;9.02;3.50;;;12.70;96.30;;;;;;4903585;29;20066;-67
2022/09/24 06:35:44;;;;;;;7.00;3.97;;;12.80;96.10;;;;;;4936409;29;20114;-68
2022/09/24 06:38:11;;;;;;;7.97;3.60;;;12.90;95.80;;;;;;4951443;29;20401;-67
2022/09/24 06:40:37;;;;;;;6.55;3.80;;;12.90;95.80;;;;;;4904093;29;20075;-68
2022/09/24 06:43:05;;;;;;;4.30;3.53;;;13.00;95.80;;;;;;4935322;29;20057;-68
2022/09/24 06:45:31;;;;;;;5.47;3.80;;;13.00;95.80;;;;;;4920147;29;20091;-68
2022/09/24 06:47:59;;;;;;;5.13;3.90;;;13.10;95.70;;;;;;4920398;29;20047;-67
2022/09/24 06:50:26;;;;;;;6.13;3.92;;;13.10;95.50;;;;;;4936196;29;20102;-68
2022/09/24 06:52:52;;;;;;;5.25;3.70;;;13.20;95.50;;;;;;4904189;29;20495;-68
2022/09/24 06:55:17;;;;;;;5.78;4.07;;;13.20;95.50;;;;;;4934890;29;20051;-68
2022/09/24 06:57:44;;;;;;;8.85;3.58;;;13.20;95.50;;;;;;4945115;29;20047;-67
2022/09/24 07:00:11;;;;;;;6.75;4.10;;;13.30;95.30;;;;;;4918003;29;20043;-68
2022/09/24 07:02:37;;;;;;;6.60;4.15;;;13.30;95.30;;;;;;4934981;29;20078;-68
2022/09/24 07:05:03;;;;;;;7.55;4.35;;;13.40;95.40;;;;;;4926207;29;20051;-67
2022/09/24 07:07:28;;;;;;;7.78;4.30;;;13.40;95.30;;;;;;4916902;29;20758;-67
2022/09/24 07:09:55;;;;;;;7.13;4.63;;;13.40;95.40;;;;;;4944949;28;20065;-67
2022/09/24 07:12:21;;;;;;;6.05;4.35;;;13.50;95.30;;;;;;4919736;29;20050;-68
2022/09/24 07:14:47;;;;;;;8.55;4.47;;;13.50;95.00;;;;;;4952509;28;20484;-68
2022/09/24 07:17:13;;;;;;;6.18;4.00;;;13.60;94.90;;;;;;4935643;29;20046;-68
2022/09/24 07:19:38;;;;;;;8.35;4.38;;;13.60;94.80;;;;;;4945331;29;20532;-67
2022/09/24 07:22:04;;;;;;;6.35;4.05;;;13.60;94.80;;;;;;4916847;29;20054;-68
2022/09/24 07:24:30;;;;;;;7.57;4.05;;;13.60;94.90;;;;;;4933757;29;20124;-68
2022/09/24 07:26:56;;;;;;;5.43;3.95;;;13.70;94.90;;;;;;4934258;29;20059;-66
2022/09/24 07:29:22;;;;;;;7.63;4.53;;;13.70;94.90;;;;;;4935629;29;20047;-67
2022/09/24 07:31:48;;;;;;;6.20;4.03;;;13.70;94.90;;;;;;4935644;29;20558;-68
2022/09/24 07:34:13;;;;;;;6.53;4.20;;;13.80;94.90;;;;;;4936052;29;20051;-68
2022/09/24 07:36:40;;;;;;;6.65;4.10;;;13.80;94.80;;;;;;4977694;28;20071;-68
2022/09/24 07:39:06;;;;;;;7.43;4.10;;;13.80;94.80;;;;;;4947037;29;20043;-69
2022/09/24 07:41:32;;;;;;;6.35;3.78;;;13.90;94.80;;;;;;4935196;29;20106;-68
2022/09/24 07:43:58;;;;;;;6.95;4.88;;;13.90;94.60;;;;;;4948634;29;20127;-69
2022/09/24 07:46:24;;;;;;;7.45;5.00;;;14.00;94.60;;;;;;4951078;28;20043;-68
2022/09/24 07:48:55;;;;;;;6.38;4.70;;;14.10;94.80;;;;;;4918836;29;20130;-68
2022/09/24 07:51:27;;;;;;;6.55;4.28;;;14.10;94.80;;;;;;4935382;29;20050;-69
2022/09/24 07:53:53;;;;;;;6.20;4.65;;;14.20;95.10;;;;;;4947868;28;20051;-68
2022/09/24 07:56:19;;;;;;;8.55;4.50;;;14.20;94.80;;;;;;4935842;29;20043;-68
2022/09/24 07:58:51;;;;;;;8.23;3.90;;;14.30;94.60;;;;;;4949845;29;20501;-68
2022/09/24 08:01:18;;;;;;;10.55;4.50;;;14.30;94.50;;;;;;4951186;28;20043;-68
2022/09/24 08:03:45;;;;;;;7.97;4.50;;;14.30;94.30;;;;;;4934124;29;20058;-68
2022/09/24 08:06:11;;;;;;;6.70;4.10;;;14.30;94.30;;;;;;4944915;29;20056;-68
2022/09/24 08:08:37;;;;;;;5.95;4.22;;;14.40;94.10;;;;;;4966601;28;20141;-68
2022/09/24 08:11:04;;;;;;;8.57;4.00;;;14.40;93.90;;;;;;4944214;29;20047;-68
2022/09/24 08:13:30;;;;;;;7.43;4.30;;;14.40;93.90;;;;;;4951012;28;20054;-68
2022/09/24 08:15:59;;;;;;;6.47;4.55;;;14.40;93.70;;;;;;4950443;29;20362;-67
2022/09/24 08:18:25;;;;;;;7.38;4.20;;;14.50;93.90;;;;;;4947728;28;20057;-68
2022/09/24 08:20:51;;;;;;;7.75;4.90;;;14.40;93.70;;;;;;4934949;29;20047;-68
2022/09/24 08:23:17;;;;;;;6.88;4.53;;;14.50;93.70;;;;;;4950243;28;20109;-68
2022/09/24 08:25:43;;;;;;;7.40;4.55;;;14.50;93.60;;;;;;4951943;28;20051;-68
2022/09/24 08:28:11;;;;;;;6.57;4.63;;;14.50;93.50;;;;;;4947004;28;20058;-68
2022/09/24 08:30:37;;;;;;;6.38;4.35;;;14.60;93.50;;;;;;4928906;29;20149;-68
2022/09/24 08:33:06;;;;;;;6.20;4.00;;;14.60;93.50;;;;;;4947956;28;20062;-68
2022/09/24 08:35:33;;;;;;;;;;;14.60;93.40;;;;;;4950899;28;20047;-68
2022/09/24 08:38:00;;;;;;;7.68;4.82;;;14.70;93.50;;;;;;4948937;29;19944;-68
2022/09/24 08:40:28;;;;;;;5.25;4.15;;;14.70;93.50;;;;;;4951703;28;20043;-68
2022/09/24 08:43:32;;;;;;;9.77;4.75;;;14.70;93.50;;;;;;4916136;29;20550;-68
2022/09/24 08:48:46;;;;;;;6.65;4.35;;;14.80;93.40;;;;;;4930861;28;20425;-68
2022/09/24 08:51:13;;;;;;;8.40;4.55;;;14.80;93.20;;;;;;4914242;29;20051;-68
2022/09/24 08:54:00;;;;;;;8.20;4.43;;;14.90;93.20;;;;;;4930022;29;20504;-68
2022/09/24 08:56:33;;;;;;;7.10;4.22;;;14.90;93.10;;;;;;4945999;29;20126;-68
2022/09/24 08:59:00;;;;;;;6.80;4.68;;;15.00;93.00;;;;;;4968598;28;20567;-68
2022/09/24 09:01:38;;;;;;;6.53;4.47;;;15.00;93.00;;;;;;4957763;28;20388;-68
2022/09/24 09:04:18;;;;;;;6.40;3.90;;;15.00;92.90;;;;;;4949882;29;20047;-68
2022/09/24 09:07:00;;;;;;;7.30;4.35;;;15.10;93.00;;;;;;4949351;29;20051;-69
2022/09/24 09:09:40;;;;;;;8.00;4.30;;;15.10;92.80;;;;;;4950701;28;20044;-68
2022/09/24 09:12:18;;;;;;;6.30;4.20;;;15.20;92.70;;;;;;4933096;29;20066;-68
2022/09/24 09:14:51;;;;;;;6.57;4.53;;;15.20;92.50;;;;;;4919057;29;20050;-68
2022/09/24 09:17:19;;;;;;;7.13;3.97;;;15.30;92.40;;;;;;4958642;28;20055;-68
2022/09/24 09:19:47;;;;;;;6.45;4.53;;;15.30;92.50;;;;;;4950521;29;20436;-68
2022/09/24 09:22:14;;;;;;;9.55;4.90;;;15.30;92.40;;;;;;4940686;29;20055;-68
2022/09/24 09:24:53;;;;;;;7.25;5.40;;;15.40;92.30;;;;;;4936329;28;20043;-68
2022/09/24 09:27:19;;;;;;;6.95;4.65;;;15.40;92.40;;;;;;4965223;28;20047;-68
2022/09/24 09:29:50;;;;;;;6.43;3.75;;;15.50;92.10;;;;;;4948375;28;20051;-68
2022/09/24 09:32:28;;;;;;;5.82;3.88;;;15.60;92.20;;;;;;4934003;29;20047;-69
2022/09/24 09:35:03;;;;;;;5.47;3.97;;;15.70;92.20;;;;;;4944296;29;20047;-69
2022/09/24 09:37:54;;;;;;;6.30;4.25;;;15.70;91.90;;;;;;4931626;29;20047;-69
2022/09/24 09:41:05;;;;;;;7.43;4.35;;;15.80;91.90;;;;;;4915436;29;20537;-69
2022/09/24 09:43:30;;;;;;;10.60;4.47;;;15.90;91.70;;;;;;4888043;29;20197;-68
2022/09/24 09:46:02;;;;;;;5.00;3.83;;;16.00;91.60;;;;;;4875064;29;20064;-69
2022/09/24 09:48:30;;;;;;;5.93;3.80;;;16.10;91.50;;;;;;4920625;28;20058;-68
2022/09/24 09:51:04;;;;;;;7.20;3.90;;;16.10;91.50;;;;;;4914192;29;20059;-68
2022/09/24 09:53:32;;;;;;;7.00;4.28;;;16.20;91.30;;;;;;4932273;29;20480;-68
2022/09/24 09:56:04;;;;;;;6.95;4.00;;;16.20;91.10;;;;;;4918213;29;20072;-68
2022/09/24 09:58:33;;;;;;;5.80;3.88;;;16.20;90.60;;;;;;4928926;29;20416;-69
2022/09/24 10:01:17;;;;;;;6.45;3.72;;;16.30;91.00;;;;;;4948150;28;20077;-69
2022/09/24 10:03:43;;;;;;;8.77;4.10;;;16.40;90.70;;;;;;4947507;29;20118;-69
2022/09/24 10:06:10;;;;;;;5.40;3.40;;;16.40;90.50;;;;;;4949053;28;20047;-68
2022/09/24 10:08:36;;;;;;;4.80;3.33;;;16.40;90.50;;;;;;4958563;28;20125;-69
2022/09/24 10:11:02;;;;;;;6.30;3.53;;;16.50;90.70;;;;;;4921469;29;20158;-68
2022/09/24 10:13:30;;;;;;;4.78;3.63;;;16.50;90.70;;;;;;4936263;29;20114;-68
2022/09/24 10:15:56;;;;;;;6.28;3.90;;;16.50;90.50;;;;;;4948536;28;20369;-68
2022/09/24 10:18:33;;;;;;;5.20;3.63;;;16.50;90.70;;;;;;4905121;29;20055;-68
2022/09/24 10:21:03;;;;;;;5.32;3.85;;;16.50;90.60;;;;;;4952463;29;20043;-69
2022/09/24 10:23:34;;;;;;;5.38;4.15;;;16.40;88.80;;;;;;4953950;28;20101;-68
2022/09/24 10:26:01;;;;;;;5.97;3.80;;;16.40;88.10;;;;;;4946915;29;20043;-68
2022/09/24 10:31:13;;;;;;;5.93;4.15;;;16.50;89.00;;;;;;4950090;29;20066;-69
2022/09/24 10:33:45;;;;;;;7.40;3.83;;;16.50;87.10;;;;;;4957077;28;20051;-69
2022/09/24 10:36:24;;;;;;;7.05;3.75;;;16.50;87.30;;;;;;4905780;29;20742;-69
2022/09/24 10:39:06;;;;;;;5.18;3.33;;;16.50;86.90;;;;;;4953591;28;20106;-68
2022/09/24 10:41:31;;;;;;;6.10;3.45;;;16.40;85.50;;;;;;4952209;29;20539;-69
2022/09/24 10:44:03;;;;;;;5.10;3.33;;;16.40;86.60;;;;;;4936826;29;20078;-69
2022/09/24 10:47:11;;;;;;;7.50;3.78;;;16.40;86.40;;;;;;4917676;29;20091;-69
2022/09/24 10:50:05;;;;;;;6.63;3.22;;;16.50;86.50;;;;;;4943498;28;20098;-68
2022/09/24 10:52:45;;;;;;;5.65;3.33;;;16.40;85.20;;;;;;4948707;29;20778;-68
2022/09/24 10:55:10;;;;;;;6.03;3.95;;;16.40;86.20;;;;;;4951440;29;20365;-68
2022/09/24 10:57:56;;;;;;;7.00;3.45;;;16.40;85.10;;;;;;4950888;29;20043;-69
2022/09/24 11:00:27;;;;;;;7.20;3.40;;;16.40;86.30;;;;;;4952980;28;20716;-69
2022/09/24 11:03:23;;;;;;;7.97;3.47;;;16.40;86.20;;;;;;4937180;29;20134;-68
2022/09/24 11:05:52;;;;;;;7.72;3.40;;;16.40;85.00;;;;;;4949489;29;20469;-68
2022/09/24 11:08:25;;;;;;;4.63;3.38;;;16.40;84.40;;;;;;4951592;28;20093;-68
2022/09/24 11:10:50;;;;;;;11.60;3.30;;;16.40;85.50;;;;;;4952991;28;20043;-69
2022/09/24 11:13:22;;;;;;;5.60;3.45;;;16.50;85.10;;;;;;4951102;28;20054;-68
2022/09/24 11:16:04;;;;;;;4.85;3.20;;;16.50;84.50;;;;;;4948187;28;20162;-68
2022/09/24 11:18:44;;;;;;;5.68;3.80;;;16.50;84.10;;;;;;4952642;28;20393;-68
2022/09/24 11:21:27;;;;;;;10.82;3.50;;;16.50;83.10;;;;;;4953159;28;20039;-68
2022/09/24 11:24:16;;;;;;;5.07;3.25;;;16.50;82.00;;;;;;4948379;28;20051;-68
2022/09/24 11:27:04;;;;;;;8.77;3.20;;;16.60;82.30;;;;;;4943179;29;20047;-69
2022/09/24 11:29:52;;;;;;;;;;;16.60;81.30;;;;;;4947891;29;20086;-69
2022/09/24 11:32:33;;;;;;;7.68;3.17;;;16.60;81.20;;;;;;4932073;29;19953;-68
2022/09/24 11:35:36;;;;;;;10.15;4.05;;;16.60;82.40;;;;;;4949032;29;20051;-68
2022/09/24 11:38:05;;;;;;;5.82;3.35;;;16.70;81.90;;;;;;4951239;29;20150;-68
2022/09/24 11:40:53;;;;;;;8.30;4.15;;;16.70;81.20;;;;;;4934919;29;20077;-68
2022/09/24 11:43:59;;;;;;;6.40;3.58;;;16.70;81.10;;;;;;4950833;29;20047;-68
2022/09/24 11:46:52;;;;;;;9.13;5.47;;;16.70;82.30;;;;;;4950888;29;20345;-68
2022/09/24 11:49:27;;;;;;;8.52;4.43;;;16.70;81.30;;;;;;4951473;28;20062;-68
2022/09/24 11:52:07;;;;;;;9.63;5.05;;;16.60;81.40;;;;;;4934169;29;20058;-68
2022/09/24 11:54:42;;;;;;;8.02;4.70;;;16.60;82.00;;;;;;4966288;28;20047;-68
2022/09/24 11:57:27;;;;;;;12.38;6.10;;;16.60;82.70;;;;;;4959644;28;20054;-68
2022/09/24 12:00:06;;;;;;;8.68;5.25;;;16.60;82.90;;;;;;4958661;28;20055;-68
2022/09/24 12:02:36;;;;;;;10.00;5.18;;;16.60;82.80;;;;;;4935352;29;20543;-68
2022/09/24 12:05:05;;;;;;;9.85;5.80;;;16.80;83.00;;;;;;4949318;29;20053;-68
2022/09/24 12:07:52;;;;;;;11.55;6.65;;;16.80;82.20;;;;;;4947452;29;20524;-68
2022/09/24 12:10:18;;;;;;;8.90;5.70;;;16.80;82.30;;;;;;4935693;29;20540;-69
2022/09/24 12:12:47;;;;;;;10.80;6.32;;;16.80;82.00;;;;;;4950241;29;20051;-68
2022/09/24 12:15:18;;;;;;;16.05;7.30;;;16.80;82.60;;;;;;4934814;29;20051;-68
2022/09/24 12:18:35;;;;;;;12.88;6.72;;;16.80;83.00;;;;;;4898363;29;20054;-68
2022/09/24 12:21:12;;;;;;;10.63;6.88;;;16.70;82.40;;;;;;4914802;29;20043;-68
2022/09/24 12:23:40;;;;;;;10.57;6.75;;;16.70;83.10;;;;;;4899190;29;20106;-68
2022/09/24 12:26:06;;;;;;;;;;;16.70;83.50;;;;;;4934997;29;20046;-68
2022/09/24 12:34:21;;;;;;;9.10;6.45;;;16.60;85.80;;;;;;4930271;29;20146;-68
2022/09/24 12:37:24;;;;;;;12.23;6.88;;;16.60;85.80;;;;;;4944157;29;20086;-68
2022/09/24 12:40:12;;;;;;;11.73;7.00;;;16.50;84.30;;;;;;4937705;28;20043;-68
2022/09/24 12:42:41;;;;;;;13.57;7.22;;;16.50;84.50;;;;;;4948500;28;20054;-68
2022/09/24 12:45:12;;;;;;;10.52;6.97;;;16.50;85.00;;;;;;4949535;29;20047;-69
2022/09/24 12:47:44;;;;;;;14.73;7.15;;;16.50;85.80;;;;;;4916163;29;20491;-68
2022/09/24 12:50:21;;;;;;;12.48;7.38;;;16.50;86.10;;;;;;4933970;29;20051;-68
2022/09/24 12:52:48;;;;;;;12.00;7.45;;;16.40;85.60;;;;;;4946959;29;20516;-68
2022/09/24 12:55:25;;;;;;;11.98;7.85;;;16.40;85.60;;;;;;4933465;29;20369;-68
2022/09/24 12:57:59;;;;;;;14.05;7.30;;;16.30;86.20;;;;;;4932122;28;20141;-68
2022/09/24 13:00:31;;;;;;;12.48;7.95;;;16.30;86.50;;;;;;4897867;29;20542;-68
2022/09/24 13:02:57;;;;;;;14.82;7.97;;;16.20;85.80;;;;;;4949107;29;20055;-69
2022/09/24 13:05:26;;;;;;;13.05;7.57;;;16.20;86.30;;;;;;4899572;29;20047;-69
2022/09/24 13:07:58;;;;;;;13.40;7.05;;;16.20;86.50;;;;;;4949000;29;20050;-68
2022/09/24 13:10:29;;;;;;;10.85;7.80;;;16.20;86.70;;;;;;4930529;29;20135;-68
2022/09/24 13:12:56;;;;;;;10.32;7.28;;;16.20;86.50;;;;;;4927201;29;20049;-68
2022/09/24 13:15:36;;;;;;;12.18;8.02;;;16.10;86.80;;;;;;4928257;29;20405;-68
2022/09/24 13:18:07;;;;;;;15.45;7.63;;;16.10;87.40;;;;;;4932825;29;20075;-68
2022/09/24 13:20:35;;;;;;;12.48;7.70;;;16.10;87.40;;;;;;4949701;29;20389;-68
2022/09/24 13:23:18;;;;;;;11.38;7.88;;;16.10;88.30;;;;;;4917189;29;20087;-68